My Meet Scores
Jessica Ziemianin, The Gymnastics Shop - MyMeetScores.com
Top100 | Top Teams | Upcoming Meets | Completed Meets | Latest | Add Scores | Help| Support | Bookmark and Share

Jessica Ziemianin, The Gymnastics Shop
Personal Bests
LevelVault BarsBeamFloorAA
39.7259.700 9.4759.62538.125
49.2509.050 9.3009.27536.725
59.0258.800 8.9509.20034.825
Meet Scores
Date Meet Team Session Level Division Vault Bars Beam Floor AA
2019-03-22 Illinois Gymnastics State Championships The Gymnastics Shop 1 5 JR E 8.825 18T 8.325 20 8.475 20 9.025 13 34.650 18
2019-02-23 Kinetic Classic 2019 The Gymnastics Shop 1 5 Middle 8.650 6 8.800 5 8.275 18 8.525 12 34.250 7T
2019-02-08 IGI Chicago Style 2019 The Gymnastics Shop 48 5 632 LaSalle L5 A 8.850 16 8.400 12 8.250 17 8.850 11 34.350 15
2019-01-18 2019 Bravo Classic The Gymnastics Shop 2A 5 Jr 8.400 19 8.225 23 8.450 28 8.900 18 33.975 23
2019-01-11 St Jude Benefit Meet The Gymnastics Shop 9A 5 Jr B 8.750 14T 7.950 15T 8.650 10 9.200 5T 34.550 13
2018-12-07 St. Nick Invite 2018 The Gymnastics Shop 1 5 JrB 8.700 6T 7.450 14 8.950 9 9.100 4T 34.200 10
2018-11-30 Ultimate Wish Classic The Gymnastics Shop 6 5 JR B 9.025 7T 8.750 8 8.550 11 8.500 8T 34.825 10
2018-03-08 Level 4 & 5 State The Gymnastics Shop All 4 Yh D 8.575 19T 9.000 6T 9.300 11 9.050 7T 35.925 8
2018-02-23 Kinetic Classic The Gymnastics Shop 6 4 Younger 8.450 60T 8.600 70T 8.700 48T 9.000 55T 34.750 66
2018-02-08 Nashville Nights 2018 The Gymnastics Shop B03 4 ChC 8.800 2 8.800 4 9.150 2T 8.625 7 35.375 3
2018-01-26 King Arthur Invitational The Gymnastics Shop 2 4 Jr B 8.450 8 8.850 3 8.950 7 9.175 3T 35.425 4
2018-01-12 Legacy Elite Winter Classic The Gymnastics Shop 3 4 ChildB 9.050 4T 8.925 2 9.200 3T 9.050 4T 36.225 2
2017-12-08 St. Nick Invite The Gymnastics Shop 1 4 JrB 9.250 1T 9.000 1 9.200 3 9.275 1 36.725 1
2017-12-01 Ultimate Wish Classic The Gymnastics Shop 10 4 Jr C 8.725 5 8.350 6 8.800 6 9.150 5 35.025 4
2017-10-27 M&M's Pixie Dust Invitational The Gymnastics Shop 4 4 9 yrs. 8.250 4 9.050 3 8.450 7 9.000 4T 34.750 3
2017-03-30 2017 Illinois Level 3 & 5 State The Gymnastics Shop All 3 Yh F 9.725 1 9.600 3 9.475 3T 9.300 3T 38.100 1
2017-02-17 Big Classic The Gymnastics Shop B 3 Child C 9.500 3T 9.700 2 9.300 4 9.625 3 38.125 2
2017-01-27 2017 UGA Invitational The Gymnastics Shop B8 3 Sr A 9.000 2T 9.100 6T 8.925 12 9.500 1 36.525 5
2017-01-13 Legacy Elite Winter Classic The Gymnastics Shop B2 3 ChB 9.175 4 8.850 4 9.100 1 9.375 2 36.500 2
2016-12-15 2016 Hawaiian Pineapple Sanction The Gymnastics Shop 2A 3 Age 8 9.125 7T 8.875 3 8.250 6T 9.100 3 35.350 3
2016-12-02 Ultimate Wish Classic The Gymnastics Shop 11 3 Jr B 8.875 13 9.200 10T 9.100 6T 9.400 3T 36.575 7
Get your scores on
a t-shirt, pin, or hoodie

www.lazysuits.com